sensor_id;sensor_type;location;lat;lon;timestamp;P1;durP1;ratioP1;P2;durP2;ratioP2
22673;SDS011;11504;43.334;21.918;2023-12-20T00:01:57;116.0;;;98.0;;
22673;SDS011;11504;43.334;21.918;2023-12-20T00:06:34;43.0;;;38.0;;
22673;SDS011;11504;43.334;21.918;2023-12-20T00:11:10;43.0;;;38.0;;
22673;SDS011;11504;43.334;21.918;2023-12-20T00:15:46;58.0;;;52.0;;
22673;SDS011;11504;43.334;21.918;2023-12-20T00:20:23;58.0;;;52.0;;
22673;SDS011;11504;43.334;21.918;2023-12-20T00:24:59;72.0;;;65.0;;
22673;SDS011;11504;43.334;21.918;2023-12-20T00:29:35;72.0;;;65.0;;
22673;SDS011;11504;43.334;21.918;2023-12-20T00:34:12;76.0;;;65.0;;
22673;SDS011;11504;43.334;21.918;2023-12-20T00:38:48;76.0;;;65.0;;
22673;SDS011;11504;43.334;21.918;2023-12-20T00:43:24;76.0;;;65.0;;
22673;SDS011;11504;43.334;21.918;2023-12-20T00:48:01;81.0;;;65.0;;
22673;SDS011;11504;43.334;21.918;2023-12-20T00:52:37;81.0;;;65.0;;
22673;SDS011;11504;43.334;21.918;2023-12-20T00:57:14;65.0;;;54.0;;
22673;SDS011;11504;43.334;21.918;2023-12-20T01:01:50;65.0;;;54.0;;
22673;SDS011;11504;43.334;21.918;2023-12-20T01:06:27;49.0;;;42.0;;
22673;SDS011;11504;43.334;21.918;2023-12-20T01:11:04;49.0;;;42.0;;
22673;SDS011;11504;43.334;21.918;2023-12-20T01:15:41;70.0;;;58.0;;
22673;SDS011;11504;43.334;21.918;2023-12-20T01:20:18;70.0;;;58.0;;
22673;SDS011;11504;43.334;21.918;2023-12-20T01:24:54;92.0;;;74.0;;
22673;SDS011;11504;43.334;21.918;2023-12-20T01:29:30;92.0;;;74.0;;
22673;SDS011;11504;43.334;21.918;2023-12-20T01:34:07;88.0;;;74.0;;
22673;SDS011;11504;43.334;21.918;2023-12-20T01:38:43;88.0;;;74.0;;
22673;SDS011;11504;43.334;21.918;2023-12-20T01:43:19;88.0;;;74.0;;
22673;SDS011;11504;43.334;21.918;2023-12-20T01:47:59;85.0;;;74.0;;
22673;SDS011;11504;43.334;21.918;2023-12-20T01:52:37;85.0;;;74.0;;
22673;SDS011;11504;43.334;21.918;2023-12-20T01:57:15;85.0;;;72.0;;
22673;SDS011;11504;43.334;21.918;2023-12-20T02:01:51;85.0;;;72.0;;
22673;SDS011;11504;43.334;21.918;2023-12-20T02:06:30;85.0;;;71.0;;
22673;SDS011;11504;43.334;21.918;2023-12-20T02:11:10;85.0;;;71.0;;
22673;SDS011;11504;43.334;21.918;2023-12-20T02:15:46;82.0;;;69.0;;
22673;SDS011;11504;43.334;21.918;2023-12-20T02:20:23;82.0;;;69.0;;
22673;SDS011;11504;43.334;21.918;2023-12-20T02:24:59;79.0;;;67.0;;
22673;SDS011;11504;43.334;21.918;2023-12-20T02:29:36;79.0;;;67.0;;
22673;SDS011;11504;43.334;21.918;2023-12-20T02:34:12;88.0;;;76.0;;
22673;SDS011;11504;43.334;21.918;2023-12-20T02:38:49;88.0;;;76.0;;
22673;SDS011;11504;43.334;21.918;2023-12-20T02:43:25;88.0;;;76.0;;
22673;SDS011;11504;43.334;21.918;2023-12-20T02:48:02;98.0;;;84.0;;
22673;SDS011;11504;43.334;21.918;2023-12-20T02:52:42;98.0;;;84.0;;
22673;SDS011;11504;43.334;21.918;2023-12-20T02:57:21;90.0;;;79.0;;
22673;SDS011;11504;43.334;21.918;2023-12-20T03:01:57;90.0;;;79.0;;
22673;SDS011;11504;43.334;21.918;2023-12-20T03:06:33;83.0;;;74.0;;
22673;SDS011;11504;43.334;21.918;2023-12-20T03:11:10;83.0;;;74.0;;
22673;SDS011;11504;43.334;21.918;2023-12-20T03:15:47;82.0;;;73.0;;
22673;SDS011;11504;43.334;21.918;2023-12-20T03:20:23;82.0;;;73.0;;
22673;SDS011;11504;43.334;21.918;2023-12-20T03:25:00;81.0;;;72.0;;
22673;SDS011;11504;43.334;21.918;2023-12-20T03:29:36;81.0;;;72.0;;
22673;SDS011;11504;43.334;21.918;2023-12-20T03:34:12;76.0;;;68.0;;
22673;SDS011;11504;43.334;21.918;2023-12-20T03:38:48;76.0;;;68.0;;
22673;SDS011;11504;43.334;21.918;2023-12-20T03:43:25;76.0;;;68.0;;
22673;SDS011;11504;43.334;21.918;2023-12-20T03:48:01;71.0;;;63.0;;
22673;SDS011;11504;43.334;21.918;2023-12-20T03:52:37;71.0;;;63.0;;
22673;SDS011;11504;43.334;21.918;2023-12-20T03:57:14;74.0;;;64.0;;
22673;SDS011;11504;43.334;21.918;2023-12-20T04:01:50;74.0;;;64.0;;
22673;SDS011;11504;43.334;21.918;2023-12-20T04:06:26;78.0;;;66.0;;
22673;SDS011;11504;43.334;21.918;2023-12-20T04:11:07;78.0;;;66.0;;
22673;SDS011;11504;43.334;21.918;2023-12-20T04:15:43;104.0;;;87.0;;
22673;SDS011;11504;43.334;21.918;2023-12-20T04:20:20;104.0;;;87.0;;
22673;SDS011;11504;43.334;21.918;2023-12-20T04:24:56;131.0;;;108.0;;
22673;SDS011;11504;43.334;21.918;2023-12-20T04:29:32;131.0;;;108.0;;
22673;SDS011;11504;43.334;21.918;2023-12-20T04:34:09;116.0;;;97.0;;
22673;SDS011;11504;43.334;21.918;2023-12-20T04:38:45;116.0;;;97.0;;
22673;SDS011;11504;43.334;21.918;2023-12-20T04:43:21;116.0;;;97.0;;
22673;SDS011;11504;43.334;21.918;2023-12-20T04:47:58;102.0;;;86.0;;
22673;SDS011;11504;43.334;21.918;2023-12-20T04:52:34;102.0;;;86.0;;
22673;SDS011;11504;43.334;21.918;2023-12-20T04:57:11;105.0;;;86.0;;
22673;SDS011;11504;43.334;21.918;2023-12-20T05:01:47;105.0;;;86.0;;
22673;SDS011;11504;43.334;21.918;2023-12-20T05:06:24;108.0;;;85.0;;
22673;SDS011;11504;43.334;21.918;2023-12-20T05:11:00;108.0;;;85.0;;
22673;SDS011;11504;43.334;21.918;2023-12-20T05:15:37;113.0;;;92.0;;
22673;SDS011;11504;43.334;21.918;2023-12-20T05:20:13;113.0;;;92.0;;
22673;SDS011;11504;43.334;21.918;2023-12-20T05:24:50;118.0;;;98.0;;
22673;SDS011;11504;43.334;21.918;2023-12-20T05:29:26;118.0;;;98.0;;
22673;SDS011;11504;43.334;21.918;2023-12-20T05:34:03;78.0;;;67.0;;
22673;SDS011;11504;43.334;21.918;2023-12-20T05:38:39;78.0;;;67.0;;
22673;SDS011;11504;43.334;21.918;2023-12-20T05:43:16;78.0;;;67.0;;
22673;SDS011;11504;43.334;21.918;2023-12-20T05:47:52;39.0;;;36.0;;
22673;SDS011;11504;43.334;21.918;2023-12-20T05:52:28;39.0;;;36.0;;
22673;SDS011;11504;43.334;21.918;2023-12-20T05:57:04;48.0;;;44.0;;
22673;SDS011;11504;43.334;21.918;2023-12-20T06:01:41;48.0;;;44.0;;
22673;SDS011;11504;43.334;21.918;2023-12-20T06:06:17;57.0;;;53.0;;
22673;SDS011;11504;43.334;21.918;2023-12-20T06:10:53;57.0;;;53.0;;
22673;SDS011;11504;43.334;21.918;2023-12-20T06:15:30;74.0;;;66.0;;
22673;SDS011;11504;43.334;21.918;2023-12-20T06:20:09;74.0;;;66.0;;
22673;SDS011;11504;43.334;21.918;2023-12-20T06:24:46;92.0;;;79.0;;
22673;SDS011;11504;43.334;21.918;2023-12-20T06:29:22;92.0;;;79.0;;
22673;SDS011;11504;43.334;21.918;2023-12-20T06:33:59;92.0;;;79.0;;
22673;SDS011;11504;43.334;21.918;2023-12-20T06:38:36;112.0;;;92.0;;
22673;SDS011;11504;43.334;21.918;2023-12-20T06:43:13;112.0;;;92.0;;
22673;SDS011;11504;43.334;21.918;2023-12-20T06:47:49;132.0;;;105.0;;
22673;SDS011;11504;43.334;21.918;2023-12-20T06:52:26;132.0;;;105.0;;
22673;SDS011;11504;43.334;21.918;2023-12-20T06:57:03;121.0;;;100.0;;
22673;SDS011;11504;43.334;21.918;2023-12-20T07:01:40;121.0;;;100.0;;
22673;SDS011;11504;43.334;21.918;2023-12-20T07:06:16;110.0;;;94.0;;
22673;SDS011;11504;43.334;21.918;2023-12-20T07:10:52;110.0;;;94.0;;
22673;SDS011;11504;43.334;21.918;2023-12-20T07:15:29;111.0;;;96.0;;
22673;SDS011;11504;43.334;21.918;2023-12-20T07:20:08;111.0;;;96.0;;
22673;SDS011;11504;43.334;21.918;2023-12-20T07:24:46;112.0;;;98.0;;
22673;SDS011;11504;43.334;21.918;2023-12-20T07:29:22;112.0;;;98.0;;
22673;SDS011;11504;43.334;21.918;2023-12-20T07:33:58;112.0;;;98.0;;
22673;SDS011;11504;43.334;21.918;2023-12-20T07:38:34;104.0;;;93.0;;
22673;SDS011;11504;43.334;21.918;2023-12-20T07:43:11;104.0;;;93.0;;
22673;SDS011;11504;43.334;21.918;2023-12-20T07:47:47;96.0;;;88.0;;
22673;SDS011;11504;43.334;21.918;2023-12-20T07:52:23;96.0;;;88.0;;
22673;SDS011;11504;43.334;21.918;2023-12-20T07:56:59;98.0;;;88.0;;
22673;SDS011;11504;43.334;21.918;2023-12-20T08:01:36;98.0;;;88.0;;
22673;SDS011;11504;43.334;21.918;2023-12-20T08:06:12;100.0;;;89.0;;
22673;SDS011;11504;43.334;21.918;2023-12-20T08:10:48;100.0;;;89.0;;
22673;SDS011;11504;43.334;21.918;2023-12-20T08:15:25;84.0;;;75.0;;
22673;SDS011;11504;43.334;21.918;2023-12-20T08:20:05;84.0;;;75.0;;
22673;SDS011;11504;43.334;21.918;2023-12-20T08:24:43;67.0;;;61.0;;
22673;SDS011;11504;43.334;21.918;2023-12-20T08:29:20;67.0;;;61.0;;
22673;SDS011;11504;43.334;21.918;2023-12-20T08:33:56;67.0;;;61.0;;
22673;SDS011;11504;43.334;21.918;2023-12-20T08:38:33;86.0;;;76.0;;
22673;SDS011;11504;43.334;21.918;2023-12-20T08:43:09;86.0;;;76.0;;
22673;SDS011;11504;43.334;21.918;2023-12-20T08:47:46;105.0;;;92.0;;
22673;SDS011;11504;43.334;21.918;2023-12-20T08:52:23;105.0;;;92.0;;
22673;SDS011;11504;43.334;21.918;2023-12-20T08:56:59;116.0;;;104.0;;
22673;SDS011;11504;43.334;21.918;2023-12-20T09:01:35;116.0;;;104.0;;
22673;SDS011;11504;43.334;21.918;2023-12-20T09:06:11;128.0;;;116.0;;
22673;SDS011;11504;43.334;21.918;2023-12-20T09:10:48;128.0;;;116.0;;
22673;SDS011;11504;43.334;21.918;2023-12-20T09:15:26;114.0;;;102.0;;
22673;SDS011;11504;43.334;21.918;2023-12-20T09:20:05;114.0;;;102.0;;
22673;SDS011;11504;43.334;21.918;2023-12-20T09:24:43;100.0;;;89.0;;
22673;SDS011;11504;43.334;21.918;2023-12-20T09:29:19;100.0;;;89.0;;
22673;SDS011;11504;43.334;21.918;2023-12-20T09:33:55;100.0;;;89.0;;
22673;SDS011;11504;43.334;21.918;2023-12-20T09:38:32;111.0;;;98.0;;
22673;SDS011;11504;43.334;21.918;2023-12-20T09:43:14;111.0;;;98.0;;
22673;SDS011;11504;43.334;21.918;2023-12-20T09:47:58;122.0;;;108.0;;
22673;SDS011;11504;43.334;21.918;2023-12-20T09:52:38;122.0;;;108.0;;
22673;SDS011;11504;43.334;21.918;2023-12-20T09:57:19;109.0;;;99.0;;
22673;SDS011;11504;43.334;21.918;2023-12-20T10:01:56;109.0;;;99.0;;
22673;SDS011;11504;43.334;21.918;2023-12-20T10:06:37;96.0;;;90.0;;
22673;SDS011;11504;43.334;21.918;2023-12-20T10:11:15;96.0;;;90.0;;
22673;SDS011;11504;43.334;21.918;2023-12-20T10:15:52;79.0;;;72.0;;
22673;SDS011;11504;43.334;21.918;2023-12-20T10:20:29;79.0;;;72.0;;
22673;SDS011;11504;43.334;21.918;2023-12-20T10:25:08;62.0;;;55.0;;
22673;SDS011;11504;43.334;21.918;2023-12-20T10:29:44;62.0;;;55.0;;
22673;SDS011;11504;43.334;21.918;2023-12-20T10:34:21;57.0;;;50.0;;
22673;SDS011;11504;43.334;21.918;2023-12-20T10:38:59;57.0;;;50.0;;
22673;SDS011;11504;43.334;21.918;2023-12-20T10:43:39;57.0;;;50.0;;
22673;SDS011;11504;43.334;21.918;2023-12-20T10:48:19;52.0;;;45.0;;
22673;SDS011;11504;43.334;21.918;2023-12-20T10:52:59;52.0;;;45.0;;
22673;SDS011;11504;43.334;21.918;2023-12-20T10:57:36;60.0;;;52.0;;
22673;SDS011;11504;43.334;21.918;2023-12-20T11:02:14;60.0;;;52.0;;
22673;SDS011;11504;43.334;21.918;2023-12-20T11:07:08;69.0;;;59.0;;
22673;SDS011;11504;43.334;21.918;2023-12-20T11:12:17;69.0;;;59.0;;
22673;SDS011;11504;43.334;21.918;2023-12-20T11:17:17;78.0;;;66.0;;
22673;SDS011;11504;43.334;21.918;2023-12-20T11:21:53;78.0;;;66.0;;
22673;SDS011;11504;43.334;21.918;2023-12-20T11:26:30;87.0;;;74.0;;
22673;SDS011;11504;43.334;21.918;2023-12-20T11:31:06;87.0;;;74.0;;
22673;SDS011;11504;43.334;21.918;2023-12-20T11:35:46;80.0;;;69.0;;
22673;SDS011;11504;43.334;21.918;2023-12-20T11:40:23;80.0;;;69.0;;
22673;SDS011;11504;43.334;21.918;2023-12-20T11:45:02;73.0;;;64.0;;
22673;SDS011;11504;43.334;21.918;2023-12-20T11:49:39;73.0;;;64.0;;
22673;SDS011;11504;43.334;21.918;2023-12-20T11:54:16;73.0;;;64.0;;
22673;SDS011;11504;43.334;21.918;2023-12-20T11:58:53;69.0;;;58.0;;
22673;SDS011;11504;43.334;21.918;2023-12-20T12:03:31;69.0;;;58.0;;
22673;SDS011;11504;43.334;21.918;2023-12-20T12:08:07;65.0;;;53.0;;
22673;SDS011;11504;43.334;21.918;2023-12-20T12:12:44;65.0;;;53.0;;
22673;SDS011;11504;43.334;21.918;2023-12-20T12:17:21;69.0;;;59.0;;
22673;SDS011;11504;43.334;21.918;2023-12-20T12:22:09;69.0;;;59.0;;
22673;SDS011;11504;43.334;21.918;2023-12-20T12:26:51;73.0;;;65.0;;
22673;SDS011;11504;43.334;21.918;2023-12-20T12:31:28;73.0;;;65.0;;
22673;SDS011;11504;43.334;21.918;2023-12-20T12:36:06;78.0;;;71.0;;
22673;SDS011;11504;43.334;21.918;2023-12-20T12:40:44;78.0;;;71.0;;
22673;SDS011;11504;43.334;21.918;2023-12-20T12:45:20;84.0;;;77.0;;
22673;SDS011;11504;43.334;21.918;2023-12-20T12:49:56;84.0;;;77.0;;
22673;SDS011;11504;43.334;21.918;2023-12-20T12:54:32;84.0;;;76.0;;
22673;SDS011;11504;43.334;21.918;2023-12-20T12:59:09;84.0;;;76.0;;
22673;SDS011;11504;43.334;21.918;2023-12-20T13:03:45;84.0;;;76.0;;
22673;SDS011;11504;43.334;21.918;2023-12-20T13:08:22;84.0;;;74.0;;
22673;SDS011;11504;43.334;21.918;2023-12-20T13:12:59;84.0;;;74.0;;
22673;SDS011;11504;43.334;21.918;2023-12-20T13:17:35;86.0;;;76.0;;
22673;SDS011;11504;43.334;21.918;2023-12-20T13:22:11;86.0;;;76.0;;
22673;SDS011;11504;43.334;21.918;2023-12-20T13:26:48;88.0;;;77.0;;
22673;SDS011;11504;43.334;21.918;2023-12-20T13:31:24;88.0;;;77.0;;
22673;SDS011;11504;43.334;21.918;2023-12-20T13:36:01;78.0;;;70.0;;
22673;SDS011;11504;43.334;21.918;2023-12-20T13:40:38;78.0;;;70.0;;
22673;SDS011;11504;43.334;21.918;2023-12-20T13:45:14;67.0;;;64.0;;
22673;SDS011;11504;43.334;21.918;2023-12-20T13:49:52;67.0;;;64.0;;
22673;SDS011;11504;43.334;21.918;2023-12-20T13:54:28;67.0;;;64.0;;
22673;SDS011;11504;43.334;21.918;2023-12-20T13:59:04;78.0;;;68.0;;
22673;SDS011;11504;43.334;21.918;2023-12-20T14:03:41;78.0;;;68.0;;
22673;SDS011;11504;43.334;21.918;2023-12-20T14:08:17;88.0;;;72.0;;
22673;SDS011;11504;43.334;21.918;2023-12-20T14:12:54;88.0;;;72.0;;
22673;SDS011;11504;43.334;21.918;2023-12-20T14:17:30;102.0;;;84.0;;
22673;SDS011;11504;43.334;21.918;2023-12-20T14:22:07;102.0;;;84.0;;
22673;SDS011;11504;43.334;21.918;2023-12-20T14:26:43;117.0;;;95.0;;
22673;SDS011;11504;43.334;21.918;2023-12-20T14:31:19;117.0;;;95.0;;
22673;SDS011;11504;43.334;21.918;2023-12-20T14:35:56;134.0;;;114.0;;
22673;SDS011;11504;43.334;21.918;2023-12-20T14:40:32;134.0;;;114.0;;
22673;SDS011;11504;43.334;21.918;2023-12-20T14:45:10;150.0;;;132.0;;
22673;SDS011;11504;43.334;21.918;2023-12-20T14:49:48;150.0;;;132.0;;
22673;SDS011;11504;43.334;21.918;2023-12-20T14:54:24;150.0;;;132.0;;
22673;SDS011;11504;43.334;21.918;2023-12-20T14:59:01;188.0;;;166.0;;
22673;SDS011;11504;43.334;21.918;2023-12-20T15:03:37;188.0;;;166.0;;
22673;SDS011;11504;43.334;21.918;2023-12-20T15:08:14;227.0;;;201.0;;
22673;SDS011;11504;43.334;21.918;2023-12-20T15:12:51;227.0;;;201.0;;
22673;SDS011;11504;43.334;21.918;2023-12-20T15:17:27;230.0;;;206.0;;
22673;SDS011;11504;43.334;21.918;2023-12-20T15:22:03;230.0;;;206.0;;
22673;SDS011;11504;43.334;21.918;2023-12-20T15:26:41;232.0;;;211.0;;
22673;SDS011;11504;43.334;21.918;2023-12-20T15:31:19;232.0;;;211.0;;
22673;SDS011;11504;43.334;21.918;2023-12-20T15:35:55;247.0;;;224.0;;
22673;SDS011;11504;43.334;21.918;2023-12-20T15:40:31;247.0;;;224.0;;
22673;SDS011;11504;43.334;21.918;2023-12-20T15:45:09;262.0;;;237.0;;
22673;SDS011;11504;43.334;21.918;2023-12-20T15:49:46;262.0;;;237.0;;
22673;SDS011;11504;43.334;21.918;2023-12-20T15:54:22;262.0;;;237.0;;
22673;SDS011;11504;43.334;21.918;2023-12-20T15:58:58;313.0;;;273.0;;
22673;SDS011;11504;43.334;21.918;2023-12-20T16:03:35;313.0;;;273.0;;
22673;SDS011;11504;43.334;21.918;2023-12-20T16:08:11;364.0;;;309.0;;
22673;SDS011;11504;43.334;21.918;2023-12-20T16:12:48;364.0;;;309.0;;
22673;SDS011;11504;43.334;21.918;2023-12-20T16:17:24;368.0;;;320.0;;
22673;SDS011;11504;43.334;21.918;2023-12-20T16:22:01;368.0;;;320.0;;
22673;SDS011;11504;43.334;21.918;2023-12-20T16:26:37;372.0;;;330.0;;
22673;SDS011;11504;43.334;21.918;2023-12-20T16:31:14;372.0;;;330.0;;
22673;SDS011;11504;43.334;21.918;2023-12-20T16:35:50;366.0;;;322.0;;
22673;SDS011;11504;43.334;21.918;2023-12-20T16:40:27;366.0;;;322.0;;
22673;SDS011;11504;43.334;21.918;2023-12-20T16:45:05;360.0;;;313.0;;
22673;SDS011;11504;43.334;21.918;2023-12-20T16:49:44;360.0;;;313.0;;
22673;SDS011;11504;43.334;21.918;2023-12-20T16:54:20;360.0;;;313.0;;
22673;SDS011;11504;43.334;21.918;2023-12-20T16:58:56;331.0;;;290.0;;
22673;SDS011;11504;43.334;21.918;2023-12-20T17:03:33;331.0;;;290.0;;
22673;SDS011;11504;43.334;21.918;2023-12-20T17:08:09;302.0;;;266.0;;
22673;SDS011;11504;43.334;21.918;2023-12-20T17:12:45;302.0;;;266.0;;
22673;SDS011;11504;43.334;21.918;2023-12-20T17:17:21;330.0;;;292.0;;
22673;SDS011;11504;43.334;21.918;2023-12-20T17:21:58;330.0;;;292.0;;
22673;SDS011;11504;43.334;21.918;2023-12-20T17:26:34;359.0;;;319.0;;
22673;SDS011;11504;43.334;21.918;2023-12-20T17:31:10;359.0;;;319.0;;
22673;SDS011;11504;43.334;21.918;2023-12-20T17:35:47;293.0;;;260.0;;
22673;SDS011;11504;43.334;21.918;2023-12-20T17:40:23;293.0;;;260.0;;
22673;SDS011;11504;43.334;21.918;2023-12-20T17:45:00;227.0;;;201.0;;
22673;SDS011;11504;43.334;21.918;2023-12-20T17:49:36;227.0;;;201.0;;
22673;SDS011;11504;43.334;21.918;2023-12-20T17:54:13;227.0;;;201.0;;
22673;SDS011;11504;43.334;21.918;2023-12-20T17:58:50;242.0;;;218.0;;
22673;SDS011;11504;43.334;21.918;2023-12-20T18:03:26;242.0;;;218.0;;
22673;SDS011;11504;43.334;21.918;2023-12-20T18:08:04;256.0;;;234.0;;
22673;SDS011;11504;43.334;21.918;2023-12-20T18:12:41;256.0;;;234.0;;
22673;SDS011;11504;43.334;21.918;2023-12-20T18:17:17;247.0;;;224.0;;
22673;SDS011;11504;43.334;21.918;2023-12-20T18:21:54;247.0;;;224.0;;
22673;SDS011;11504;43.334;21.918;2023-12-20T18:26:31;238.0;;;214.0;;
22673;SDS011;11504;43.334;21.918;2023-12-20T18:31:07;238.0;;;214.0;;
22673;SDS011;11504;43.334;21.918;2023-12-20T18:35:43;290.0;;;261.0;;
22673;SDS011;11504;43.334;21.918;2023-12-20T18:40:20;290.0;;;261.0;;
22673;SDS011;11504;43.334;21.918;2023-12-20T18:44:57;343.0;;;308.0;;
22673;SDS011;11504;43.334;21.918;2023-12-20T18:49:33;343.0;;;308.0;;
22673;SDS011;11504;43.334;21.918;2023-12-20T18:54:10;343.0;;;308.0;;
22673;SDS011;11504;43.334;21.918;2023-12-20T18:58:47;300.0;;;272.0;;
22673;SDS011;11504;43.334;21.918;2023-12-20T19:03:23;300.0;;;272.0;;
22673;SDS011;11504;43.334;21.918;2023-12-20T19:08:00;257.0;;;235.0;;
22673;SDS011;11504;43.334;21.918;2023-12-20T19:12:36;257.0;;;235.0;;
22673;SDS011;11504;43.334;21.918;2023-12-20T19:17:13;245.0;;;226.0;;
22673;SDS011;11504;43.334;21.918;2023-12-20T19:21:49;245.0;;;226.0;;
22673;SDS011;11504;43.334;21.918;2023-12-20T19:26:25;233.0;;;216.0;;
22673;SDS011;11504;43.334;21.918;2023-12-20T19:31:02;233.0;;;216.0;;
22673;SDS011;11504;43.334;21.918;2023-12-20T19:35:39;267.0;;;250.0;;
22673;SDS011;11504;43.334;21.918;2023-12-20T19:40:16;267.0;;;250.0;;
22673;SDS011;11504;43.334;21.918;2023-12-20T19:44:52;301.0;;;284.0;;
22673;SDS011;11504;43.334;21.918;2023-12-20T19:49:28;301.0;;;284.0;;
22673;SDS011;11504;43.334;21.918;2023-12-20T19:54:05;301.0;;;284.0;;
22673;SDS011;11504;43.334;21.918;2023-12-20T19:58:41;331.0;;;297.0;;
22673;SDS011;11504;43.334;21.918;2023-12-20T20:03:17;331.0;;;297.0;;
22673;SDS011;11504;43.334;21.918;2023-12-20T20:07:54;361.0;;;310.0;;
22673;SDS011;11504;43.334;21.918;2023-12-20T20:12:30;361.0;;;310.0;;
22673;SDS011;11504;43.334;21.918;2023-12-20T20:17:07;288.0;;;252.0;;
22673;SDS011;11504;43.334;21.918;2023-12-20T20:21:43;288.0;;;252.0;;
22673;SDS011;11504;43.334;21.918;2023-12-20T20:26:20;215.0;;;195.0;;
22673;SDS011;11504;43.334;21.918;2023-12-20T20:30:57;215.0;;;195.0;;
22673;SDS011;11504;43.334;21.918;2023-12-20T20:35:33;236.0;;;214.0;;
22673;SDS011;11504;43.334;21.918;2023-12-20T20:40:10;236.0;;;214.0;;
22673;SDS011;11504;43.334;21.918;2023-12-20T20:44:47;236.0;;;214.0;;
22673;SDS011;11504;43.334;21.918;2023-12-20T20:49:23;256.0;;;234.0;;
22673;SDS011;11504;43.334;21.918;2023-12-20T20:53:59;256.0;;;234.0;;
22673;SDS011;11504;43.334;21.918;2023-12-20T20:58:37;230.0;;;208.0;;
22673;SDS011;11504;43.334;21.918;2023-12-20T21:03:13;230.0;;;208.0;;
22673;SDS011;11504;43.334;21.918;2023-12-20T21:07:49;204.0;;;181.0;;
22673;SDS011;11504;43.334;21.918;2023-12-20T21:12:26;204.0;;;181.0;;
22673;SDS011;11504;43.334;21.918;2023-12-20T21:17:03;191.0;;;172.0;;
22673;SDS011;11504;43.334;21.918;2023-12-20T21:21:40;191.0;;;172.0;;
22673;SDS011;11504;43.334;21.918;2023-12-20T21:26:16;178.0;;;163.0;;
22673;SDS011;11504;43.334;21.918;2023-12-20T21:30:52;178.0;;;163.0;;
22673;SDS011;11504;43.334;21.918;2023-12-20T21:35:29;149.0;;;136.0;;
22673;SDS011;11504;43.334;21.918;2023-12-20T21:40:08;149.0;;;136.0;;
22673;SDS011;11504;43.334;21.918;2023-12-20T21:44:46;149.0;;;136.0;;
22673;SDS011;11504;43.334;21.918;2023-12-20T21:49:23;120.0;;;110.0;;
22673;SDS011;11504;43.334;21.918;2023-12-20T21:53:59;120.0;;;110.0;;
22673;SDS011;11504;43.334;21.918;2023-12-20T21:58:36;120.0;;;108.0;;
22673;SDS011;11504;43.334;21.918;2023-12-20T22:03:13;120.0;;;108.0;;
22673;SDS011;11504;43.334;21.918;2023-12-20T22:07:49;119.0;;;106.0;;
22673;SDS011;11504;43.334;21.918;2023-12-20T22:12:26;119.0;;;106.0;;
22673;SDS011;11504;43.334;21.918;2023-12-20T22:17:03;111.0;;;96.0;;
22673;SDS011;11504;43.334;21.918;2023-12-20T22:21:40;111.0;;;96.0;;
22673;SDS011;11504;43.334;21.918;2023-12-20T22:26:16;103.0;;;87.0;;
22673;SDS011;11504;43.334;21.918;2023-12-20T22:30:52;103.0;;;87.0;;
22673;SDS011;11504;43.334;21.918;2023-12-20T22:35:28;100.0;;;84.0;;
22673;SDS011;11504;43.334;21.918;2023-12-20T22:40:07;100.0;;;84.0;;
22673;SDS011;11504;43.334;21.918;2023-12-20T22:44:47;100.0;;;84.0;;
22673;SDS011;11504;43.334;21.918;2023-12-20T22:49:23;96.0;;;81.0;;
22673;SDS011;11504;43.334;21.918;2023-12-20T22:54:00;96.0;;;81.0;;
22673;SDS011;11504;43.334;21.918;2023-12-20T22:58:37;90.0;;;75.0;;
22673;SDS011;11504;43.334;21.918;2023-12-20T23:03:14;90.0;;;75.0;;
22673;SDS011;11504;43.334;21.918;2023-12-20T23:07:51;84.0;;;69.0;;
22673;SDS011;11504;43.334;21.918;2023-12-20T23:12:27;84.0;;;69.0;;
22673;SDS011;11504;43.334;21.918;2023-12-20T23:17:03;74.0;;;62.0;;
22673;SDS011;11504;43.334;21.918;2023-12-20T23:21:39;74.0;;;62.0;;
22673;SDS011;11504;43.334;21.918;2023-12-20T23:26:15;65.0;;;56.0;;
22673;SDS011;11504;43.334;21.918;2023-12-20T23:30:51;65.0;;;56.0;;
22673;SDS011;11504;43.334;21.918;2023-12-20T23:35:28;64.0;;;56.0;;
22673;SDS011;11504;43.334;21.918;2023-12-20T23:40:07;64.0;;;56.0;;
22673;SDS011;11504;43.334;21.918;2023-12-20T23:44:44;64.0;;;56.0;;
22673;SDS011;11504;43.334;21.918;2023-12-20T23:49:20;63.0;;;57.0;;
22673;SDS011;11504;43.334;21.918;2023-12-20T23:53:56;63.0;;;57.0;;
22673;SDS011;11504;43.334;21.918;2023-12-20T23:58:33;64.0;;;56.0;;
